Time;durP1;ratioP1;P1;durP2;ratioP2;P2;SDS_P1;SDS_P2;PMS_P1;PMS_P2;Temp;Humidity;BMP_temperature;BMP_pressure;BME280_temperature;BME280_humidity;BME280_pressure;Samples;Min_cycle;Max_cycle;Signal;HPM_P1;HPM_P2
2021/01/24 00:01:54;;;;;;;10.80;9.70;;;24.40;72.90;;;;;;5033986;28;20442;-60
2021/01/24 00:04:20;;;;;;;14.60;10.20;;;24.40;72.80;;;;;;5033908;28;20451;-60
2021/01/24 00:06:46;;;;;;;11.13;9.50;;;24.40;72.80;;;;;;5033900;28;20445;-60
2021/01/24 00:09:12;;;;;;;13.87;9.73;;;24.30;72.70;;;;;;5033566;28;20447;-60
2021/01/24 00:11:39;;;;;;;14.00;9.40;;;24.40;72.90;;;;;;5033811;28;20447;-60
2021/01/24 00:14:05;;;;;;;13.63;8.33;;;24.40;72.70;;;;;;5034229;28;20445;-60
2021/01/24 00:16:31;;;;;;;13.30;9.83;;;24.40;73.70;;;;;;5033857;28;20451;-60
2021/01/24 00:18:58;;;;;;;11.53;8.63;;;24.40;72.70;;;;;;5033730;28;20802;-60
2021/01/24 00:21:25;;;;;;;12.70;8.93;;;24.40;72.80;;;;;;5033366;28;20476;-60
2021/01/24 00:23:51;;;;;;;14.27;9.00;;;24.40;72.70;;;;;;5033685;28;20444;-60
2021/01/24 00:26:17;;;;;;;13.37;8.60;;;24.40;72.60;;;;;;5034158;28;20511;-60
2021/01/24 00:28:43;;;;;;;9.67;8.67;;;24.40;72.70;;;;;;5034442;28;20448;-60
2021/01/24 00:31:10;;;;;;;12.37;9.63;;;24.40;72.50;;;;;;5033610;28;20842;-60
2021/01/24 00:33:36;;;;;;;11.90;8.70;;;24.40;72.50;;;;;;5033302;28;20460;-61
2021/01/24 00:36:04;;;;;;;9.87;7.93;;;24.40;72.50;;;;;;5033512;28;20548;-60
2021/01/24 00:38:30;;;;;;;11.13;8.80;;;24.40;72.40;;;;;;5033256;28;20460;-60
2021/01/24 00:41:01;;;;;;;9.77;8.77;;;24.40;72.40;;;;;;5033515;28;20524;-60
2021/01/24 00:43:27;;;;;;;14.20;9.30;;;24.40;73.30;;;;;;5033537;28;20531;-60
2021/01/24 00:45:53;;;;;;;12.10;8.60;;;24.40;72.30;;;;;;5033160;28;20967;-60
2021/01/24 00:48:19;;;;;;;14.23;10.20;;;24.40;72.30;;;;;;5033474;28;20440;-60
2021/01/24 00:50:46;;;;;;;12.20;9.60;;;24.40;72.40;;;;;;5033461;28;20452;-60
2021/01/24 00:53:13;;;;;;;11.77;8.70;;;24.40;72.30;;;;;;5033398;28;20450;-59
2021/01/24 00:55:39;;;;;;;10.30;8.37;;;24.40;72.30;;;;;;5033306;28;20547;-60
2021/01/24 00:58:06;;;;;;;14.07;9.50;;;24.40;72.30;;;;;;5033093;28;20449;-60
2021/01/24 01:00:32;;;;;;;14.20;8.70;;;24.40;72.30;;;;;;5033113;28;20970;-59
2021/01/24 01:02:58;;;;;;;9.40;8.30;;;24.40;72.30;;;;;;5033363;28;20437;-60
2021/01/24 01:08:47;;;;;;;9.20;8.37;;;24.40;72.00;;;;;;5037006;28;20789;-60
2021/01/24 01:11:13;;;;;;;9.87;8.23;;;24.40;72.00;;;;;;5037176;28;20449;-60
2021/01/24 01:13:40;;;;;;;9.43;8.30;;;24.40;72.10;;;;;;5037128;28;20455;-60
2021/01/24 01:16:06;;;;;;;9.73;8.20;;;24.40;72.10;;;;;;5036970;28;20493;-60
2021/01/24 01:18:32;;;;;;;8.03;7.23;;;24.40;71.90;;;;;;5036966;28;20456;-60
2021/01/24 01:20:59;;;;;;;11.50;8.63;;;24.40;72.10;;;;;;5036501;28;20523;-60
2021/01/24 01:23:25;;;;;;;10.40;7.93;;;24.40;72.10;;;;;;5036908;28;20443;-60
2021/01/24 01:25:53;;;;;;;10.20;7.40;;;24.40;71.90;;;;;;5036898;28;20449;-60
2021/01/24 01:28:20;;;;;;;7.63;6.83;;;24.40;72.00;;;;;;5036824;28;20449;-60
2021/01/24 01:30:46;;;;;;;12.00;8.30;;;24.40;72.00;;;;;;5036753;28;20452;-60
2021/01/24 01:33:12;;;;;;;11.73;8.10;;;24.40;72.00;;;;;;5036398;28;20452;-60
2021/01/24 01:35:39;;;;;;;9.87;8.67;;;24.40;71.90;;;;;;5036573;28;20485;-60
2021/01/24 01:38:05;;;;;;;15.20;9.37;;;24.40;72.00;;;;;;5036653;28;20460;-60
2021/01/24 01:40:31;;;;;;;8.60;7.63;;;24.40;72.00;;;;;;5036599;28;20425;-60
2021/01/24 01:42:59;;;;;;;8.93;7.93;;;24.40;72.10;;;;;;5037093;28;20441;-60
2021/01/24 01:45:26;;;;;;;9.63;8.30;;;24.40;72.00;;;;;;5036543;28;20478;-60
2021/01/24 01:47:52;;;;;;;9.87;7.83;;;24.40;72.00;;;;;;5036521;28;20445;-60
2021/01/24 01:50:20;;;;;;;8.57;7.70;;;24.40;71.90;;;;;;5036113;28;20452;-60
2021/01/24 01:52:47;;;;;;;7.70;6.77;;;24.40;71.90;;;;;;5036359;28;20548;-60
2021/01/24 01:55:13;;;;;;;8.80;7.83;;;24.40;71.90;;;;;;5035931;28;20560;-60
2021/01/24 01:57:40;;;;;;;8.97;7.43;;;24.40;71.90;;;;;;5036331;28;20445;-60
2021/01/24 02:00:09;;;;;;;7.47;6.70;;;24.40;71.90;;;;;;5035991;28;20453;-60
2021/01/24 02:02:54;;;;;;;8.53;7.40;;;24.40;71.90;;;;;;5036165;28;20921;-60
2021/01/24 02:05:28;;;;;;;9.03;7.90;;;24.40;72.00;;;;;;5036133;28;20437;-60
2021/01/24 02:08:01;;;;;;;9.23;7.20;;;24.40;72.10;;;;;;5036118;28;20428;-61
2021/01/24 02:10:34;;;;;;;8.80;7.37;;;24.40;72.00;;;;;;5036054;28;20436;-60
2021/01/24 02:13:05;;;;;;;8.97;7.00;;;24.40;72.10;;;;;;5036044;28;20434;-61
2021/01/24 02:15:36;;;;;;;9.80;7.97;;;24.40;72.00;;;;;;5035163;28;20477;-60
2021/01/24 02:18:05;;;;;;;8.23;7.40;;;24.40;71.90;;;;;;5035232;28;20953;-60
2021/01/24 02:20:40;;;;;;;8.20;7.07;;;24.40;72.90;;;;;;5035542;28;20472;-61
2021/01/24 02:23:08;;;;;;;8.03;6.60;;;24.40;72.10;;;;;;5035618;28;20444;-60
2021/01/24 02:25:41;;;;;;;10.10;7.50;;;24.40;72.00;;;;;;5035447;28;20472;-60
2021/01/24 02:28:24;;;;;;;10.63;7.47;;;24.40;72.00;;;;;;5035787;28;20441;-60
2021/01/24 02:30:52;;;;;;;8.23;7.13;;;24.40;72.00;;;;;;5035756;28;20482;-60
2021/01/24 02:33:22;;;;;;;8.47;6.97;;;24.40;72.00;;;;;;5035615;28;20446;-60
2021/01/24 02:35:53;;;;;;;8.40;7.40;;;24.40;71.90;;;;;;5035189;28;20488;-61
2021/01/24 02:38:20;;;;;;;8.70;7.80;;;24.40;72.00;;;;;;5035545;28;20491;-60
2021/01/24 02:40:47;;;;;;;8.40;7.30;;;24.40;72.10;;;;;;5035475;28;20450;-60
2021/01/24 02:43:15;;;;;;;9.13;8.20;;;24.30;71.90;;;;;;5035434;28;20445;-60
2021/01/24 02:45:43;;;;;;;8.27;7.17;;;24.40;72.10;;;;;;5035391;28;20445;-60
2021/01/24 02:48:12;;;;;;;7.77;6.97;;;24.30;71.90;;;;;;5035367;28;20446;-60
2021/01/24 02:50:40;;;;;;;8.70;6.97;;;24.40;72.10;;;;;;5035271;28;20452;-60
2021/01/24 02:53:07;;;;;;;8.60;6.70;;;24.30;71.90;;;;;;5035303;28;20807;-60
2021/01/24 02:55:33;;;;;;;7.60;6.80;;;24.30;71.90;;;;;;5035107;28;20493;-60
2021/01/24 02:58:00;;;;;;;9.20;7.20;;;24.30;71.90;;;;;;5034841;28;20450;-60
2021/01/24 03:00:27;;;;;;;9.13;6.67;;;24.40;72.10;;;;;;5034791;28;20998;-61
2021/01/24 03:02:53;;;;;;;8.23;6.03;;;24.30;72.00;;;;;;5034805;28;20452;-60
2021/01/24 03:05:21;;;;;;;7.93;7.13;;;24.30;71.90;;;;;;5035488;28;20535;-60
2021/01/24 03:07:48;;;;;;;7.37;6.63;;;24.40;72.10;;;;;;5034787;28;20451;-60
2021/01/24 03:10:15;;;;;;;7.90;6.73;;;24.40;72.10;;;;;;5034575;28;20528;-60
2021/01/24 03:12:49;;;;;;;6.67;6.10;;;24.40;72.10;;;;;;5034961;28;20799;-60
2021/01/24 03:15:17;;;;;;;7.70;6.70;;;24.30;71.90;;;;;;5034680;28;20485;-60
2021/01/24 03:17:45;;;;;;;7.13;6.50;;;24.30;71.90;;;;;;5034480;28;20508;-60
2021/01/24 03:20:13;;;;;;;7.00;6.37;;;24.40;72.10;;;;;;5034845;28;20484;-60
2021/01/24 03:22:42;;;;;;;7.57;6.33;;;24.30;72.00;;;;;;5035291;28;20427;-60
2021/01/24 03:25:10;;;;;;;6.33;5.80;;;24.40;72.30;;;;;;5034622;28;20517;-60
2021/01/24 03:27:37;;;;;;;6.40;5.80;;;24.40;72.20;;;;;;5034098;28;20951;-60
2021/01/24 03:30:05;;;;;;;7.00;6.20;;;24.30;72.10;;;;;;5034219;28;20445;-60
2021/01/24 03:32:31;;;;;;;7.23;6.30;;;24.30;72.00;;;;;;5034509;28;20797;-60
2021/01/24 03:34:57;;;;;;;6.90;6.27;;;24.30;72.00;;;;;;5034444;28;20884;-60
2021/01/24 03:37:23;;;;;;;7.83;5.57;;;24.40;72.20;;;;;;5034386;28;20778;-60
2021/01/24 03:39:50;;;;;;;7.40;6.60;;;24.30;72.10;;;;;;5034402;28;20572;-60
2021/01/24 03:42:17;;;;;;;6.30;5.70;;;24.40;72.20;;;;;;5034296;28;20443;-60
2021/01/24 03:44:43;;;;;;;7.73;7.00;;;24.30;72.10;;;;;;5034268;28;20506;-60
2021/01/24 03:47:11;;;;;;;6.80;6.10;;;24.30;72.20;;;;;;5034240;28;20451;-60
2021/01/24 03:49:37;;;;;;;7.13;6.43;;;24.30;72.10;;;;;;5034221;28;20457;-60
2021/01/24 03:52:04;;;;;;;7.27;6.63;;;24.30;72.20;;;;;;5034172;28;20458;-60
2021/01/24 03:54:30;;;;;;;6.33;5.80;;;24.30;72.20;;;;;;5033697;28;20982;-60
2021/01/24 03:56:57;;;;;;;6.63;5.97;;;24.30;72.20;;;;;;5033801;28;20992;-60
2021/01/24 03:59:23;;;;;;;6.70;6.00;;;24.30;72.10;;;;;;5034013;28;20499;-60
2021/01/24 04:01:50;;;;;;;5.87;5.27;;;24.30;72.10;;;;;;5034010;28;20434;-60
2021/01/24 04:04:16;;;;;;;6.10;5.50;;;24.30;72.10;;;;;;5033923;28;20442;-60
2021/01/24 04:06:42;;;;;;;7.10;6.40;;;24.30;72.10;;;;;;5033625;28;20959;-60
2021/01/24 04:09:09;;;;;;;6.73;6.13;;;24.30;72.20;;;;;;5033887;28;20443;-60
2021/01/24 04:11:35;;;;;;;7.17;6.23;;;24.30;72.10;;;;;;5033855;28;20449;-61
2021/01/24 04:14:02;;;;;;;6.70;5.30;;;24.30;72.10;;;;;;5033808;28;20846;-60
2021/01/24 04:16:29;;;;;;;5.33;4.83;;;24.30;72.10;;;;;;5033441;28;20492;-60
2021/01/24 04:18:55;;;;;;;7.10;6.17;;;24.30;72.10;;;;;;5033761;28;20453;-60
2021/01/24 04:21:22;;;;;;;6.93;6.27;;;24.30;72.10;;;;;;5033427;28;20499;-60
2021/01/24 04:23:48;;;;;;;6.80;6.10;;;24.30;72.20;;;;;;5033482;28;20449;-60
2021/01/24 04:26:14;;;;;;;6.13;5.53;;;24.30;72.20;;;;;;5033679;28;20468;-60
2021/01/24 04:28:41;;;;;;;6.30;5.70;;;24.30;72.10;;;;;;5033677;28;20443;-60
2021/01/24 04:31:08;;;;;;;7.80;6.10;;;24.30;72.00;;;;;;5033667;28;20450;-60
2021/01/24 04:33:34;;;;;;;6.30;5.70;;;24.30;72.10;;;;;;5033642;28;20453;-60
2021/01/24 04:36:00;;;;;;;7.00;5.77;;;24.30;72.10;;;;;;5033551;28;20494;-60
2021/01/24 04:38:27;;;;;;;6.77;6.00;;;24.30;72.10;;;;;;5033281;28;20451;-60
2021/01/24 04:40:54;;;;;;;5.93;5.33;;;24.30;72.10;;;;;;5036871;28;20503;-60
2021/01/24 04:43:20;;;;;;;8.33;5.47;;;24.30;72.10;;;;;;5037670;28;20446;-60
2021/01/24 04:45:47;;;;;;;6.40;5.80;;;24.30;72.10;;;;;;5037680;28;20514;-60
2021/01/24 04:48:15;;;;;;;5.30;4.80;;;24.30;72.10;;;;;;5037337;28;20511;-61
2021/01/24 04:50:42;;;;;;;5.63;4.97;;;24.30;72.00;;;;;;5037604;28;20456;-60
2021/01/24 04:53:08;;;;;;;5.83;5.30;;;24.30;72.10;;;;;;5037240;28;20539;-60
2021/01/24 04:55:34;;;;;;;5.80;5.20;;;24.30;72.00;;;;;;5037063;28;21009;-60
2021/01/24 04:58:02;;;;;;;5.30;4.80;;;24.30;72.10;;;;;;5037408;28;20452;-60
2021/01/24 05:00:28;;;;;;;5.00;4.60;;;24.30;72.10;;;;;;5037356;28;20445;-60
2021/01/24 05:02:54;;;;;;;5.90;5.40;;;24.30;72.00;;;;;;5037350;28;20451;-60
2021/01/24 05:05:22;;;;;;;5.13;4.63;;;24.30;72.10;;;;;;5037295;28;20436;-60
2021/01/24 05:07:53;;;;;;;5.37;4.87;;;24.30;72.00;;;;;;5036946;28;20547;-60
2021/01/24 05:10:23;;;;;;;6.30;4.83;;;24.30;72.00;;;;;;5036866;28;20911;-60
2021/01/24 05:12:50;;;;;;;6.03;5.30;;;24.30;72.10;;;;;;5036795;28;20434;-60
2021/01/24 05:15:16;;;;;;;5.87;5.37;;;24.30;72.00;;;;;;5036988;28;20493;-60
2021/01/24 05:17:53;;;;;;;5.23;4.73;;;24.30;72.00;;;;;;5037026;28;20445;-60
2021/01/24 05:20:25;;;;;;;5.77;5.17;;;24.30;71.90;;;;;;5036713;28;20465;-60
2021/01/24 05:22:55;;;;;;;5.10;4.70;;;24.30;72.00;;;;;;5037003;28;20440;-60
2021/01/24 05:25:23;;;;;;;5.20;4.80;;;24.30;71.90;;;;;;5036907;28;20442;-60
2021/01/24 05:27:50;;;;;;;5.20;4.50;;;24.30;72.00;;;;;;5036907;28;20491;-60
2021/01/24 05:30:22;;;;;;;6.53;5.40;;;24.30;72.10;;;;;;5036819;28;20437;-60
2021/01/24 05:32:48;;;;;;;5.93;5.43;;;24.30;72.10;;;;;;5036868;28;20435;-60
2021/01/24 05:35:15;;;;;;;5.87;4.67;;;24.30;72.10;;;;;;5036303;28;20482;-60
2021/01/24 05:37:46;;;;;;;5.90;5.40;;;24.40;72.30;;;;;;5036411;28;20449;-60
2021/01/24 05:40:13;;;;;;;5.30;4.90;;;24.30;72.10;;;;;;5036616;28;20445;-60
2021/01/24 05:42:40;;;;;;;5.17;4.70;;;24.30;72.10;;;;;;5036601;28;20437;-61
2021/01/24 05:45:11;;;;;;;5.97;5.47;;;24.30;72.10;;;;;;5036225;28;20445;-60
2021/01/24 05:47:39;;;;;;;5.60;5.10;;;24.30;72.10;;;;;;5036291;28;20462;-58
2021/01/24 05:50:10;;;;;;;5.83;5.33;;;24.30;72.20;;;;;;5036155;28;20948;-60
2021/01/24 05:52:39;;;;;;;5.70;4.40;;;24.30;72.10;;;;;;5036450;28;20442;-60
2021/01/24 05:55:09;;;;;;;4.87;4.47;;;24.30;72.20;;;;;;5036217;28;20545;-60
2021/01/24 05:57:37;;;;;;;5.67;5.17;;;24.30;72.10;;;;;;5036322;28;20444;-60
2021/01/24 06:00:06;;;;;;;4.83;4.30;;;24.30;72.10;;;;;;5036311;28;20453;-60
2021/01/24 06:02:32;;;;;;;4.73;4.43;;;24.30;72.10;;;;;;5036237;28;20521;-60
2021/01/24 06:04:59;;;;;;;5.20;4.80;;;24.30;72.10;;;;;;5036126;28;20455;-60
2021/01/24 06:07:25;;;;;;;4.50;4.10;;;24.30;72.10;;;;;;5035737;28;20449;-60
2021/01/24 06:09:52;;;;;;;4.83;4.43;;;24.30;72.30;;;;;;5036115;28;20455;-60
2021/01/24 06:12:23;;;;;;;4.70;4.30;;;24.30;72.30;;;;;;5035724;28;20456;-60
2021/01/24 06:14:50;;;;;;;4.77;4.37;;;24.30;72.20;;;;;;5036043;28;20476;-60
2021/01/24 06:17:29;;;;;;;4.80;4.40;;;24.30;72.20;;;;;;5035948;28;20448;-60
2021/01/24 06:19:58;;;;;;;5.50;5.00;;;24.30;72.10;;;;;;5035773;28;20437;-60
2021/01/24 06:22:30;;;;;;;5.90;4.70;;;24.30;72.10;;;;;;5036714;28;20430;-60
2021/01/24 06:25:00;;;;;;;4.33;4.03;;;24.30;72.20;;;;;;5035894;28;20816;-60
2021/01/24 06:27:37;;;;;;;4.63;4.23;;;24.30;72.00;;;;;;5035777;28;20451;-61
2021/01/24 06:30:07;;;;;;;5.20;4.70;;;24.30;72.10;;;;;;5035490;28;20909;-60
2021/01/24 06:32:34;;;;;;;4.40;4.10;;;24.30;72.10;;;;;;5035752;28;20435;-60
2021/01/24 06:35:15;;;;;;;4.80;4.40;;;24.30;71.90;;;;;;5035551;28;20489;-60
2021/01/24 06:37:48;;;;;;;5.10;4.70;;;24.30;71.70;;;;;;5035327;28;20432;-60
2021/01/24 06:40:22;;;;;;;4.13;3.83;;;24.30;71.80;;;;;;5035524;28;20452;-60
2021/01/24 06:42:54;;;;;;;4.57;4.20;;;24.30;71.90;;;;;;5035512;28;20790;-60
2021/01/24 06:45:36;;;;;;;4.57;4.13;;;24.30;71.80;;;;;;5035451;28;20452;-60
2021/01/24 06:48:03;;;;;;;4.60;4.30;;;24.30;71.60;;;;;;5019734;28;20452;-60
2021/01/24 06:50:38;;;;;;;4.90;4.50;;;24.30;71.80;;;;;;5035325;28;20444;-61
2021/01/24 06:53:05;;;;;;;4.60;4.20;;;24.30;71.80;;;;;;5035308;28;20452;-60
2021/01/24 06:55:32;;;;;;;4.80;4.40;;;24.40;72.00;;;;;;5035158;28;20489;-60
2021/01/24 06:58:29;;;;;;;5.33;4.83;;;24.30;71.90;;;;;;5035233;28;20849;-60
2021/01/24 07:01:21;;;;;;;5.20;4.43;;;24.30;71.70;;;;;;5035228;28;20443;-60
2021/01/24 07:03:47;;;;;;;4.37;4.07;;;24.30;71.70;;;;;;5034595;28;20438;-60
2021/01/24 07:06:33;;;;;;;4.17;3.87;;;24.30;71.90;;;;;;5035004;28;20800;-60
2021/01/24 07:08:59;;;;;;;4.67;4.37;;;24.30;71.60;;;;;;5035015;28;20794;-60
2021/01/24 07:11:48;;;;;;;4.23;3.90;;;24.30;71.90;;;;;;5034936;28;20444;-60
2021/01/24 07:14:51;;;;;;;4.77;4.37;;;24.30;71.50;;;;;;5034671;28;20464;-60
2021/01/24 07:17:20;;;;;;;4.80;4.33;;;24.30;71.60;;;;;;5029697;28;20500;-60
2021/01/24 07:19:48;;;;;;;4.43;3.93;;;24.40;72.00;;;;;;5034533;28;20447;-58
2021/01/24 07:22:16;;;;;;;3.90;3.63;;;24.30;71.90;;;;;;5034724;28;20440;-60
2021/01/24 07:24:45;;;;;;;4.53;4.23;;;24.40;72.10;;;;;;5034630;28;20450;-60
2021/01/24 07:27:13;;;;;;;4.40;4.00;;;24.30;72.00;;;;;;5034582;28;20458;-60
2021/01/24 07:29:39;;;;;;;4.83;4.43;;;24.30;71.90;;;;;;5034278;28;20450;-60
2021/01/24 07:32:07;;;;;;;4.33;4.00;;;24.30;71.90;;;;;;5034552;28;20453;-60
2021/01/24 07:34:34;;;;;;;4.00;3.70;;;24.30;71.90;;;;;;5034120;28;20448;-60
2021/01/24 07:37:01;;;;;;;4.20;3.90;;;24.30;71.80;;;;;;5034185;28;20475;-60
2021/01/24 07:39:29;;;;;;;4.20;3.77;;;24.30;71.80;;;;;;5035234;28;20498;-60
2021/01/24 07:41:56;;;;;;;4.00;3.70;;;24.30;71.80;;;;;;5034414;28;20470;-60
2021/01/24 07:44:22;;;;;;;3.70;3.40;;;24.30;71.80;;;;;;5034037;28;20444;-60
2021/01/24 07:46:49;;;;;;;3.70;3.47;;;24.30;71.90;;;;;;5034289;28;20453;-60
2021/01/24 07:49:15;;;;;;;4.13;3.80;;;24.30;71.80;;;;;;5034266;28;20931;-61
2021/01/24 07:51:42;;;;;;;4.43;4.13;;;24.30;71.90;;;;;;5034240;28;20846;-60
2021/01/24 07:54:09;;;;;;;4.77;4.37;;;24.30;71.90;;;;;;5034208;28;20456;-60
2021/01/24 07:56:36;;;;;;;3.67;3.37;;;24.30;71.90;;;;;;5034928;28;20490;-60
2021/01/24 07:59:03;;;;;;;4.13;3.83;;;24.30;71.90;;;;;;5034064;28;20448;-60
2021/01/24 08:01:30;;;;;;;3.63;3.40;;;24.30;71.80;;;;;;5033718;28;20449;-60
2021/01/24 08:03:59;;;;;;;3.70;3.50;;;24.30;71.90;;;;;;5033736;28;20945;-60
2021/01/24 08:06:26;;;;;;;4.00;3.70;;;24.30;71.90;;;;;;5034013;28;20449;-60
2021/01/24 08:08:54;;;;;;;4.00;3.70;;;24.30;71.80;;;;;;5034532;28;20456;-60
2021/01/24 08:11:20;;;;;;;4.03;3.73;;;24.30;71.90;;;;;;5034801;28;20442;-60
2021/01/24 08:13:47;;;;;;;3.53;3.13;;;24.30;71.80;;;;;;5032979;28;20938;-60
2021/01/24 08:16:16;;;;;;;3.73;3.43;;;24.40;72.00;;;;;;5033642;28;20574;-60
2021/01/24 08:18:46;;;;;;;3.93;3.63;;;24.30;71.80;;;;;;5033874;28;20442;-60
2021/01/24 08:21:14;;;;;;;3.70;3.40;;;24.30;71.90;;;;;;5033324;28;20470;-59
2021/01/24 08:23:40;;;;;;;4.20;3.80;;;24.40;71.90;;;;;;5033776;28;20449;-60
2021/01/24 08:26:07;;;;;;;3.90;3.67;;;24.30;71.90;;;;;;5033415;28;20446;-60
2021/01/24 08:28:34;;;;;;;3.90;3.60;;;24.30;71.90;;;;;;5033869;28;20448;-59
2021/01/24 08:31:01;;;;;;;4.03;3.73;;;24.30;71.90;;;;;;5033342;28;21021;-60
2021/01/24 08:33:28;;;;;;;4.07;3.77;;;24.30;71.80;;;;;;5033648;28;20442;-60
2021/01/24 08:36:09;;;;;;;3.80;3.57;;;24.40;72.00;;;;;;5034374;28;20829;-60
2021/01/24 08:38:36;;;;;;;3.53;3.23;;;24.40;72.00;;;;;;5033638;28;20426;-60
2021/01/24 08:41:03;;;;;;;3.70;3.40;;;24.40;71.90;;;;;;5033599;28;20440;-60
2021/01/24 08:43:30;;;;;;;3.40;3.10;;;24.40;72.00;;;;;;5033513;28;20795;-59
2021/01/24 08:46:18;;;;;;;3.83;3.53;;;24.40;72.90;;;;;;5033411;28;20455;-60
2021/01/24 08:48:44;;;;;;;4.50;3.73;;;24.40;71.90;;;;;;5033576;28;20432;-60
2021/01/24 08:51:10;;;;;;;3.33;3.13;;;24.40;72.00;;;;;;5033194;28;21007;-60
2021/01/24 08:53:37;;;;;;;4.23;3.93;;;24.30;71.80;;;;;;5033131;28;20448;-59
2021/01/24 08:56:03;;;;;;;4.70;3.80;;;24.40;72.10;;;;;;5033101;28;20490;-59
2021/01/24 08:58:33;;;;;;;7.07;3.67;;;24.40;72.90;;;;;;5033057;28;20445;-59
2021/01/24 09:01:03;;;;;;;5.20;4.30;;;24.40;73.50;;;;;;5033098;28;20457;-59
2021/01/24 09:03:30;;;;;;;5.40;3.57;;;24.40;73.60;;;;;;5033318;28;20449;-59
2021/01/24 09:06:14;;;;;;;3.93;3.63;;;24.40;74.00;;;;;;5033864;28;20473;-59
2021/01/24 09:08:48;;;;;;;5.00;4.27;;;24.40;74.40;;;;;;5033381;28;20448;-59
2021/01/24 09:11:15;;;;;;;4.70;4.10;;;24.30;74.70;;;;;;5033193;28;20576;-59
2021/01/24 09:13:42;;;;;;;4.67;3.40;;;24.30;74.90;;;;;;5033255;28;20802;-59
2021/01/24 09:16:09;;;;;;;4.80;4.30;;;24.30;74.70;;;;;;5032791;28;20496;-59
2021/01/24 09:18:35;;;;;;;4.83;3.70;;;24.30;74.50;;;;;;5033227;28;20445;-59
2021/01/24 09:21:04;;;;;;;4.00;3.80;;;24.20;74.20;;;;;;5032809;28;20477;-59
2021/01/24 09:23:30;;;;;;;4.47;4.07;;;24.20;74.30;;;;;;5033098;28;20448;-59
2021/01/24 09:25:57;;;;;;;6.97;4.20;;;24.30;74.60;;;;;;5034358;28;20460;-59
2021/01/24 09:28:24;;;;;;;5.10;3.67;;;24.20;74.50;;;;;;5036887;28;20449;-59
2021/01/24 09:30:53;;;;;;;4.40;4.00;;;24.20;75.00;;;;;;5036528;28;20445;-59
2021/01/24 09:33:19;;;;;;;4.37;3.90;;;24.20;75.10;;;;;;5036806;28;20445;-59
2021/01/24 09:35:46;;;;;;;3.93;3.63;;;24.20;75.20;;;;;;5036702;28;20488;-59
2021/01/24 09:38:12;;;;;;;6.33;4.30;;;24.20;75.40;;;;;;5036383;28;20445;-59
2021/01/24 09:40:38;;;;;;;5.03;3.60;;;24.20;75.40;;;;;;5036598;28;20453;-59
2021/01/24 09:43:05;;;;;;;4.10;3.80;;;24.20;75.40;;;;;;5036447;28;20472;-58
2021/01/24 09:45:31;;;;;;;3.83;3.53;;;24.20;75.20;;;;;;5036497;28;20454;-60
2021/01/24 09:47:58;;;;;;;3.67;3.37;;;24.20;75.50;;;;;;5036063;28;20452;-58
2021/01/24 09:50:24;;;;;;;3.70;3.40;;;24.20;75.30;;;;;;5037276;28;20451;-59
2021/01/24 09:52:51;;;;;;;4.30;3.90;;;24.20;75.30;;;;;;5036432;28;20823;-59
2021/01/24 09:55:17;;;;;;;4.23;3.93;;;24.10;75.30;;;;;;5036299;28;20492;-58
2021/01/24 09:57:43;;;;;;;4.30;3.80;;;24.10;75.30;;;;;;5036374;28;20449;-59
2021/01/24 10:00:11;;;;;;;4.13;3.83;;;24.20;75.40;;;;;;5036341;28;20445;-58
2021/01/24 10:02:37;;;;;;;4.33;3.93;;;24.10;75.60;;;;;;5036281;28;20844;-58
2021/01/24 10:05:08;;;;;;;3.77;3.47;;;24.10;75.70;;;;;;5035857;28;20452;-58
2021/01/24 10:10:56;;;;;;;3.87;3.53;;;24.10;75.50;;;;;;5035904;28;20400;-62
2021/01/24 10:13:23;;;;;;;4.87;4.37;;;24.10;75.50;;;;;;5035939;28;20439;-59
2021/01/24 10:15:51;;;;;;;5.70;4.47;;;24.10;75.50;;;;;;5035862;28;20809;-61
2021/01/24 10:18:18;;;;;;;4.20;3.90;;;24.10;75.30;;;;;;5035864;28;20453;-61
2021/01/24 10:20:45;;;;;;;6.63;4.30;;;24.10;75.30;;;;;;5035612;28;20478;-60
2021/01/24 10:23:11;;;;;;;4.57;3.97;;;24.10;75.20;;;;;;5035560;28;20452;-60
2021/01/24 10:25:37;;;;;;;5.83;4.30;;;24.10;75.40;;;;;;5035788;28;20448;-59
2021/01/24 10:28:04;;;;;;;3.73;3.43;;;24.10;75.40;;;;;;5035730;28;20465;-62
2021/01/24 10:30:31;;;;;;;4.47;4.07;;;24.20;75.50;;;;;;5035742;28;20819;-61
2021/01/24 10:32:57;;;;;;;14.43;4.40;;;24.20;75.50;;;;;;5035280;28;20506;-60
2021/01/24 10:35:23;;;;;;;9.37;4.37;;;24.20;75.80;;;;;;5035425;28;20533;-62
2021/01/24 10:37:51;;;;;;;9.63;4.10;;;24.20;76.30;;;;;;5034650;28;20453;-64
2021/01/24 10:40:17;;;;;;;11.50;4.10;;;24.20;75.60;;;;;;5035204;28;20463;-63
2021/01/24 10:42:43;;;;;;;5.63;4.10;;;24.20;75.60;;;;;;5035390;28;20448;-61
2021/01/24 10:45:12;;;;;;;6.27;4.47;;;24.30;75.80;;;;;;5035311;28;20443;-63
2021/01/24 10:47:38;;;;;;;7.57;4.90;;;24.30;75.50;;;;;;5035315;28;20781;-63
2021/01/24 10:50:07;;;;;;;5.23;3.63;;;24.30;75.60;;;;;;5034964;28;20452;-63
2021/01/24 10:52:33;;;;;;;6.73;5.37;;;24.30;75.50;;;;;;5035197;28;20444;-62
2021/01/24 10:55:00;;;;;;;8.17;4.37;;;24.30;75.50;;;;;;5034861;28;20445;-61
2021/01/24 11:00:48;;;;;;;11.13;4.43;;;24.30;75.50;;;;;;5034983;28;20412;-61
2021/01/24 11:03:14;;;;;;;8.67;4.23;;;24.30;75.10;;;;;;5034809;28;20442;-62
2021/01/24 11:05:41;;;;;;;5.70;4.17;;;24.30;75.00;;;;;;5034972;28;20444;-63
2021/01/24 11:08:08;;;;;;;9.20;4.47;;;24.30;74.40;;;;;;5034799;28;20441;-62
2021/01/24 11:10:35;;;;;;;5.50;3.70;;;24.30;73.80;;;;;;5034963;28;20479;-63
2021/01/24 11:13:01;;;;;;;4.90;3.87;;;24.30;73.50;;;;;;5034934;28;20499;-63
2021/01/24 11:15:27;;;;;;;4.47;3.80;;;24.30;73.40;;;;;;5035246;28;20568;-63
2021/01/24 11:17:56;;;;;;;5.70;4.13;;;24.30;73.30;;;;;;5034794;28;20452;-62
2021/01/24 11:20:23;;;;;;;7.70;4.13;;;24.30;73.30;;;;;;5034542;28;20887;-63
2021/01/24 11:22:49;;;;;;;4.47;3.90;;;24.30;73.10;;;;;;5034463;28;20456;-63
2021/01/24 11:25:15;;;;;;;6.03;3.70;;;24.40;73.10;;;;;;5034332;28;20457;-63
2021/01/24 11:27:42;;;;;;;5.83;3.23;;;24.30;73.20;;;;;;5034370;28;20449;-62
2021/01/24 11:30:11;;;;;;;4.17;3.77;;;24.30;72.60;;;;;;5034547;28;20460;-63
2021/01/24 11:32:38;;;;;;;5.43;3.67;;;24.30;72.70;;;;;;5034251;28;20440;-63
2021/01/24 11:35:06;;;;;;;3.53;3.30;;;24.30;72.70;;;;;;5034460;28;20535;-63
2021/01/24 11:37:32;;;;;;;3.53;3.33;;;24.30;72.80;;;;;;5034210;28;20447;-62
2021/01/24 11:39:58;;;;;;;5.03;3.47;;;24.30;72.80;;;;;;5035238;28;20449;-62
2021/01/24 11:42:25;;;;;;;3.83;3.43;;;24.30;72.70;;;;;;5034040;28;20451;-62
2021/01/24 11:44:52;;;;;;;3.53;3.23;;;24.30;72.60;;;;;;5034321;28;20571;-62
2021/01/24 11:47:21;;;;;;;3.40;3.00;;;24.30;72.60;;;;;;5034290;28;20512;-63
2021/01/24 11:49:47;;;;;;;3.53;3.27;;;24.30;72.40;;;;;;5034115;28;20452;-63
2021/01/24 11:52:13;;;;;;;8.37;3.60;;;24.30;72.40;;;;;;5034194;28;20854;-63
2021/01/24 11:54:40;;;;;;;4.00;3.20;;;24.30;72.30;;;;;;5033912;28;20449;-62
2021/01/24 11:57:06;;;;;;;3.03;2.80;;;24.30;72.30;;;;;;5034831;28;20494;-63
2021/01/24 11:59:33;;;;;;;3.40;3.10;;;24.30;72.20;;;;;;5033731;28;20449;-62
2021/01/24 12:02:00;;;;;;;3.40;3.10;;;24.30;72.00;;;;;;5034055;28;20773;-62
2021/01/24 12:04:26;;;;;;;7.33;3.43;;;24.30;71.90;;;;;;5033686;28;20452;-63
2021/01/24 12:06:53;;;;;;;4.83;2.87;;;24.30;72.10;;;;;;5033705;28;21005;-63
2021/01/24 12:09:19;;;;;;;3.27;2.97;;;24.30;72.00;;;;;;5034016;28;20436;-63
2021/01/24 12:11:45;;;;;;;3.30;2.83;;;24.30;72.00;;;;;;5034466;28;20452;-63
2021/01/24 12:17:34;;;;;;;4.53;3.60;;;24.30;71.60;;;;;;5033759;28;20412;-63
2021/01/24 12:20:00;;;;;;;3.70;3.00;;;24.30;72.00;;;;;;5033597;28;20488;-62
2021/01/24 12:22:26;;;;;;;3.37;3.07;;;24.30;72.00;;;;;;5033839;28;20440;-62
2021/01/24 12:24:53;;;;;;;2.90;2.70;;;24.30;72.00;;;;;;5033722;28;20445;-62
2021/01/24 12:27:19;;;;;;;3.50;3.20;;;24.30;71.80;;;;;;5033395;28;20453;-62
2021/01/24 12:29:45;;;;;;;3.70;3.40;;;24.30;71.90;;;;;;5033672;28;20445;-63
2021/01/24 12:32:11;;;;;;;3.43;2.87;;;24.30;71.80;;;;;;5033392;28;20447;-62
2021/01/24 12:34:39;;;;;;;4.00;3.50;;;24.30;71.70;;;;;;5033564;28;20452;-63
2021/01/24 12:37:05;;;;;;;3.80;3.13;;;24.30;71.60;;;;;;5033552;28;20511;-63
2021/01/24 12:39:31;;;;;;;3.60;3.40;;;24.30;71.60;;;;;;5033639;28;20444;-62
2021/01/24 12:41:57;;;;;;;3.60;3.30;;;24.30;71.70;;;;;;5033219;28;20939;-63
2021/01/24 12:44:23;;;;;;;3.03;2.83;;;24.30;71.50;;;;;;5033547;28;20789;-63
2021/01/24 12:46:50;;;;;;;2.87;2.67;;;24.30;71.80;;;;;;5033485;28;20839;-63
2021/01/24 12:49:16;;;;;;;2.90;2.70;;;24.30;71.60;;;;;;5033484;28;20452;-63
2021/01/24 12:51:43;;;;;;;3.53;3.27;;;24.30;71.40;;;;;;5033502;28;20449;-63
2021/01/24 12:54:10;;;;;;;3.60;2.53;;;24.40;71.60;;;;;;5033431;28;20444;-63
2021/01/24 12:56:36;;;;;;;3.57;3.30;;;24.40;71.60;;;;;;5033379;28;20488;-63
2021/01/24 12:59:02;;;;;;;3.27;2.67;;;24.30;71.40;;;;;;5033409;28;20939;-63
2021/01/24 13:01:28;;;;;;;3.27;3.07;;;24.30;71.30;;;;;;5035901;28;20460;-63
2021/01/24 13:03:55;;;;;;;3.43;2.90;;;24.30;71.40;;;;;;5037831;28;20842;-63